createdAt,value
2024-01-16T00:02:25.952Z,1.10
2024-01-16T00:04:53.529Z,1.73
2024-01-16T00:07:21.109Z,1.33
2024-01-16T00:09:48.884Z,1.40
2024-01-16T00:12:16.409Z,1.93
2024-01-16T00:14:44.346Z,2.28
2024-01-16T00:17:12.770Z,2.00
2024-01-16T00:19:41.983Z,1.10
2024-01-16T00:22:09.505Z,1.63
2024-01-16T00:24:37.043Z,1.87
2024-01-16T00:27:06.245Z,1.48
2024-01-16T00:29:35.087Z,2.00
2024-01-16T00:32:02.613Z,2.10
2024-01-16T00:34:30.398Z,1.80
2024-01-16T00:36:59.379Z,2.17
2024-01-16T00:39:26.903Z,1.42
2024-01-16T00:41:54.482Z,1.45
2024-01-16T00:44:22.135Z,1.58
2024-01-16T00:46:49.742Z,1.63
2024-01-16T00:49:19.598Z,1.77
2024-01-16T00:51:49.283Z,1.80
2024-01-16T00:54:18.277Z,2.05
2024-01-16T00:56:47.823Z,1.23
2024-01-16T00:59:15.577Z,1.40
2024-01-16T01:01:43.512Z,1.80
2024-01-16T01:04:11.170Z,1.58
2024-01-16T01:06:38.745Z,1.75
2024-01-16T01:09:08.386Z,1.30
2024-01-16T01:11:37.388Z,1.30
2024-01-16T01:14:05.091Z,1.20
2024-01-16T01:16:32.809Z,1.30
2024-01-16T01:19:00.548Z,1.40
2024-01-16T01:21:28.226Z,1.50
2024-01-16T01:23:55.844Z,1.25
2024-01-16T01:26:23.486Z,1.60
2024-01-16T01:28:53.492Z,1.45
2024-01-16T01:31:21.065Z,1.20
2024-01-16T01:33:48.892Z,1.77
2024-01-16T01:36:16.499Z,1.50
2024-01-16T01:38:44.203Z,1.53
2024-01-16T01:41:13.086Z,1.60
2024-01-16T01:43:40.699Z,1.20
2024-01-16T01:46:13.934Z,1.67
2024-01-16T01:48:42.517Z,1.52
2024-01-16T01:51:10.189Z,1.30
2024-01-16T01:53:38.447Z,1.75
2024-01-16T01:56:07.303Z,1.70
2024-01-16T01:58:35.483Z,1.38
2024-01-16T02:01:03.362Z,1.60
2024-01-16T02:03:34.958Z,1.63
2024-01-16T02:06:02.747Z,1.45
2024-01-16T02:08:31.093Z,1.73
2024-01-16T02:10:58.746Z,1.80
2024-01-16T02:13:26.407Z,1.27
2024-01-16T02:15:54.017Z,1.10
2024-01-16T02:18:21.621Z,1.38
2024-01-16T02:20:50.994Z,1.50
2024-01-16T02:23:20.673Z,1.00
2024-01-16T02:25:49.623Z,1.40
2024-01-16T02:28:17.163Z,1.20
2024-01-16T02:30:44.857Z,1.38
2024-01-16T02:33:12.682Z,1.40
2024-01-16T02:35:40.527Z,1.70
2024-01-16T02:38:08.177Z,1.60
2024-01-16T02:40:35.793Z,1.07
2024-01-16T02:43:04.709Z,1.38
2024-01-16T02:45:32.256Z,1.55
2024-01-16T02:48:00.170Z,0.95
2024-01-16T02:50:27.936Z,1.20
2024-01-16T02:52:55.540Z,1.30
2024-01-16T02:55:23.132Z,0.95
2024-01-16T02:57:51.366Z,1.05
2024-01-16T03:00:20.448Z,1.20
2024-01-16T03:02:48.183Z,1.27
2024-01-16T03:05:15.889Z,1.60
2024-01-16T03:07:43.504Z,1.70
2024-01-16T03:10:11.335Z,1.40
2024-01-16T03:12:39.033Z,1.38
2024-01-16T03:15:07.202Z,1.48
2024-01-16T03:17:36.249Z,1.70
2024-01-16T03:20:04.745Z,1.55
2024-01-16T03:22:32.356Z,2.17
2024-01-16T03:24:59.950Z,1.42
2024-01-16T03:27:27.487Z,1.45
2024-01-16T03:29:55.073Z,1.50
2024-01-16T03:32:22.788Z,1.60
2024-01-16T03:34:51.793Z,1.58
2024-01-16T03:37:19.364Z,1.60
2024-01-16T03:39:47.026Z,2.13
2024-01-16T03:42:15.878Z,1.47
2024-01-16T03:44:43.636Z,1.90
2024-01-16T03:47:11.868Z,1.42
2024-01-16T03:49:39.558Z,1.77
2024-01-16T03:52:08.765Z,2.88
2024-01-16T03:54:36.418Z,1.80
2024-01-16T03:57:04.073Z,1.85
2024-01-16T03:59:31.668Z,1.83
2024-01-16T04:01:59.253Z,2.47
2024-01-16T04:04:27.404Z,1.42
2024-01-16T04:06:54.948Z,2.07
2024-01-16T04:09:23.905Z,1.95
2024-01-16T04:11:52.226Z,1.88
2024-01-16T04:14:19.843Z,1.60
2024-01-16T04:16:47.809Z,1.95
2024-01-16T04:19:15.453Z,2.00
2024-01-16T04:21:43.118Z,2.53
2024-01-16T04:24:10.668Z,2.42
2024-01-16T04:26:39.945Z,2.30
2024-01-16T04:29:07.721Z,2.15
2024-01-16T04:31:35.395Z,1.93
2024-01-16T04:34:03.043Z,2.00
2024-01-16T04:36:30.646Z,2.45
2024-01-16T04:39:00.908Z,2.05
2024-01-16T04:41:28.763Z,2.08
2024-01-16T04:43:57.745Z,2.20
2024-01-16T04:46:25.304Z,1.92
2024-01-16T04:48:52.922Z,1.80
2024-01-16T04:51:20.608Z,1.80
2024-01-16T04:53:48.235Z,1.55
2024-01-16T04:56:15.863Z,1.50
2024-01-16T04:58:43.443Z,2.10
2024-01-16T05:01:12.389Z,1.95
2024-01-16T05:03:39.980Z,1.85
2024-01-16T05:06:14.100Z,1.42
2024-01-16T05:08:41.714Z,1.27
2024-01-16T05:11:09.358Z,1.50
2024-01-16T05:13:37.160Z,1.70
2024-01-16T05:16:04.884Z,2.10
2024-01-16T05:18:34.866Z,1.65
2024-01-16T05:21:03.413Z,1.90
2024-01-16T05:23:31.089Z,2.00
2024-01-16T05:25:58.746Z,2.10
2024-01-16T05:28:26.403Z,3.13
2024-01-16T05:30:54.078Z,2.20
2024-01-16T05:33:21.805Z,2.07
2024-01-16T05:35:52.164Z,2.08
2024-01-16T05:38:19.947Z,2.42
2024-01-16T05:40:47.525Z,2.03
2024-01-16T05:43:15.663Z,2.90
2024-01-16T05:45:43.544Z,2.27
2024-01-16T05:48:11.904Z,2.10
2024-01-16T05:50:39.718Z,2.22
2024-01-16T05:53:08.731Z,2.60
2024-01-16T05:55:38.050Z,3.00
2024-01-16T05:58:05.689Z,3.20
2024-01-16T06:00:34.873Z,2.30
2024-01-16T06:03:02.532Z,2.20
2024-01-16T06:05:30.121Z,2.40
2024-01-16T06:07:57.706Z,3.05
2024-01-16T06:10:26.642Z,3.00
2024-01-16T06:12:54.189Z,3.03
2024-01-16T06:15:21.765Z,1.90
2024-01-16T06:17:49.394Z,2.55
2024-01-16T06:20:17.242Z,2.25
2024-01-16T06:22:44.840Z,2.70
2024-01-16T06:25:12.404Z,2.67
2024-01-16T06:27:42.193Z,2.30
2024-01-16T06:30:11.166Z,3.10
2024-01-16T06:32:39.024Z,2.13
2024-01-16T06:35:07.294Z,2.97
2024-01-16T06:37:35.146Z,2.13
2024-01-16T06:40:02.706Z,2.65
2024-01-16T06:42:30.315Z,2.92
2024-01-16T06:44:59.279Z,2.47
2024-01-16T06:47:27.054Z,2.07
2024-01-16T06:49:54.659Z,2.63
2024-01-16T06:52:22.189Z,3.35
2024-01-16T06:54:49.716Z,3.03
2024-01-16T06:57:17.338Z,4.00
2024-01-16T06:59:44.912Z,2.73
2024-01-16T07:02:13.899Z,3.42
2024-01-16T07:04:41.453Z,3.15
2024-01-16T07:07:09.013Z,4.55
2024-01-16T07:09:36.600Z,3.25
2024-01-16T07:12:04.972Z,2.87
2024-01-16T07:14:33.181Z,3.65
2024-01-16T07:17:01.116Z,4.05
2024-01-16T07:19:30.127Z,4.80
2024-01-16T07:21:57.719Z,3.88
2024-01-16T07:24:25.662Z,3.80
2024-01-16T07:26:55.372Z,3.20
2024-01-16T07:29:22.956Z,3.58
2024-01-16T07:31:50.517Z,4.15
2024-01-16T07:34:22.357Z,4.05
2024-01-16T07:36:51.462Z,3.40
2024-01-16T07:39:19.106Z,3.58
2024-01-16T07:41:46.723Z,3.33
2024-01-16T07:44:14.287Z,4.13
2024-01-16T07:46:41.834Z,4.20
2024-01-16T07:49:09.435Z,4.73
2024-01-16T07:51:36.998Z,3.55
2024-01-16T07:54:09.913Z,3.25
2024-01-16T07:56:38.891Z,4.25
2024-01-16T07:59:06.549Z,3.90
2024-01-16T08:01:34.547Z,3.63
2024-01-16T08:04:02.152Z,4.00
2024-01-16T08:06:29.919Z,3.65
2024-01-16T08:08:57.776Z,3.90
2024-01-16T08:11:26.812Z,2.97
2024-01-16T08:13:54.406Z,4.13
2024-01-16T08:16:22.024Z,3.85
2024-01-16T08:18:49.831Z,4.47
2024-01-16T08:21:17.450Z,3.47
2024-01-16T08:23:45.089Z,4.15
2024-01-16T08:26:12.669Z,3.93
2024-01-16T08:28:41.611Z,3.75
2024-01-16T08:31:09.298Z,4.07
2024-01-16T08:33:43.256Z,3.33
2024-01-16T08:36:14.475Z,4.25
2024-01-16T08:38:42.193Z,4.30
2024-01-16T08:41:10.203Z,4.22
2024-01-16T08:43:37.947Z,3.97
2024-01-16T08:46:07.975Z,4.45
2024-01-16T08:48:35.907Z,4.10
2024-01-16T08:51:03.604Z,3.80
2024-01-16T08:53:32.206Z,4.40
2024-01-16T08:56:00.049Z,4.07
2024-01-16T08:58:27.959Z,4.10
2024-01-16T09:00:55.597Z,4.15
2024-01-16T09:03:24.623Z,4.07
2024-01-16T09:05:52.354Z,3.88
2024-01-16T09:08:20.054Z,3.83
2024-01-16T09:10:47.627Z,4.68
2024-01-16T09:13:15.219Z,4.50
2024-01-16T09:15:42.879Z,5.10
2024-01-16T09:18:10.659Z,4.43
2024-01-16T09:20:39.755Z,4.88
2024-01-16T09:23:07.311Z,5.18
2024-01-16T09:25:34.921Z,5.13
2024-01-16T09:28:02.553Z,5.50
2024-01-16T09:30:30.177Z,5.05
2024-01-16T09:32:57.865Z,4.90
2024-01-16T09:35:25.583Z,5.22
2024-01-16T09:37:54.946Z,6.00
2024-01-16T09:40:22.781Z,5.87
2024-01-16T09:42:50.361Z,4.95
2024-01-16T09:45:21.338Z,5.18
2024-01-16T09:47:51.752Z,5.75
2024-01-16T09:50:20.420Z,5.93
2024-01-16T09:52:48.424Z,5.43
2024-01-16T09:55:17.536Z,5.38
2024-01-16T09:57:47.265Z,6.10
2024-01-16T10:00:15.320Z,6.00
2024-01-16T10:02:43.801Z,6.13
2024-01-16T10:05:12.553Z,6.10
2024-01-16T10:07:40.960Z,5.80
2024-01-16T10:10:11.950Z,6.40
2024-01-16T10:12:41.294Z,5.60
2024-01-16T10:15:11.951Z,6.53
2024-01-16T10:17:43.518Z,4.70
2024-01-16T10:20:15.222Z,5.45
2024-01-16T10:22:45.456Z,5.53
2024-01-16T10:25:18.406Z,4.65
2024-01-16T10:27:50.072Z,4.32
2024-01-16T10:30:23.911Z,3.60
2024-01-16T10:32:51.666Z,3.65
2024-01-16T10:35:22.509Z,5.20
2024-01-16T10:37:51.166Z,2.90
2024-01-16T10:40:24.362Z,3.10
2024-01-16T10:43:01.324Z,3.50
2024-01-16T10:45:29.490Z,3.97
2024-01-16T10:48:05.984Z,3.95
2024-01-16T10:50:34.273Z,3.00
2024-01-16T10:53:09.249Z,2.90
2024-01-16T10:55:42.238Z,3.27
2024-01-16T10:58:13.869Z,4.22
2024-01-16T11:00:41.726Z,3.60
2024-01-16T11:03:14.531Z,2.95
2024-01-16T11:05:42.275Z,2.90
2024-01-16T11:08:12.307Z,2.80
2024-01-16T11:10:40.066Z,2.90
2024-01-16T11:13:08.360Z,3.00
2024-01-16T11:15:42.510Z,3.33
2024-01-16T11:18:13.667Z,2.70
2024-01-16T11:21:01.743Z,3.53
2024-01-16T11:23:34.163Z,3.42
2024-01-16T11:26:24.377Z,2.40
2024-01-16T11:28:55.055Z,2.00
2024-01-16T11:31:35.843Z,2.33
2024-01-16T11:34:04.845Z,2.67
2024-01-16T11:36:47.841Z,2.38
2024-01-16T11:39:21.393Z,2.25
2024-01-16T11:41:56.021Z,2.30
2024-01-16T11:44:40.473Z,2.80
2024-01-16T11:47:09.994Z,3.17
2024-01-16T11:49:42.421Z,3.35
2024-01-16T11:55:32.949Z,3.72
2024-01-16T11:58:27.181Z,4.15
2024-01-16T12:00:55.436Z,3.00
2024-01-16T12:03:33.926Z,2.95
2024-01-16T12:06:06.950Z,4.40
2024-01-16T12:08:34.784Z,3.70
2024-01-16T12:11:02.380Z,3.17
2024-01-16T12:13:32.837Z,3.23
2024-01-16T12:16:05.096Z,3.33
2024-01-16T12:18:41.333Z,3.53
2024-01-16T12:21:13.116Z,4.22
2024-01-16T12:23:47.005Z,5.22
2024-01-16T12:26:22.271Z,3.87
2024-01-16T12:28:52.687Z,4.28
2024-01-16T12:31:20.679Z,5.25
2024-01-16T12:33:57.916Z,5.82
2024-01-16T12:36:29.564Z,4.78
2024-01-16T12:38:57.941Z,5.53
2024-01-16T12:41:32.559Z,4.78
2024-01-16T12:44:14.826Z,5.25
2024-01-16T12:46:44.273Z,6.18
2024-01-16T12:49:13.574Z,4.07
2024-01-16T12:51:41.338Z,3.97
2024-01-16T12:54:12.644Z,4.18
2024-01-16T12:56:40.380Z,3.88
2024-01-16T12:59:11.653Z,4.35
2024-01-16T13:01:42.831Z,4.30
2024-01-16T13:04:10.407Z,4.67
2024-01-16T13:06:40.268Z,3.95
2024-01-16T13:09:11.918Z,3.70
2024-01-16T13:11:50.569Z,4.13
2024-01-16T13:14:18.221Z,4.72
2024-01-16T13:16:45.940Z,2.60
2024-01-16T13:19:13.529Z,2.85
2024-01-16T13:21:42.424Z,3.67
2024-01-16T13:24:09.979Z,3.95
2024-01-16T13:26:38.589Z,3.72
2024-01-16T13:29:07.137Z,4.67
2024-01-16T13:31:35.009Z,4.55
2024-01-16T13:34:02.876Z,5.68
2024-01-16T13:36:45.854Z,3.03
2024-01-16T13:39:19.769Z,6.57
2024-01-16T13:41:48.460Z,3.47
2024-01-16T13:44:16.278Z,4.38
2024-01-16T13:46:57.058Z,5.18
2024-01-16T13:49:29.501Z,3.67
2024-01-16T13:51:57.158Z,3.05
2024-01-16T13:54:27.460Z,3.43
2024-01-16T13:57:03.249Z,3.85
2024-01-16T13:59:35.224Z,2.90
2024-01-16T14:02:03.833Z,3.15
2024-01-16T14:04:31.453Z,2.78
2024-01-16T14:07:11.063Z,3.20
2024-01-16T14:09:44.428Z,3.22
2024-01-16T14:12:13.378Z,3.00
2024-01-16T14:14:42.458Z,2.53
2024-01-16T14:17:10.619Z,3.05
2024-01-16T14:19:39.184Z,2.43
2024-01-16T14:22:07.967Z,4.32
2024-01-16T14:24:35.591Z,3.38
2024-01-16T14:27:05.479Z,3.40
2024-01-16T14:29:35.588Z,2.50
2024-01-16T14:32:03.561Z,3.20
2024-01-16T14:34:31.187Z,2.30
2024-01-16T14:36:58.793Z,2.72
2024-01-16T14:39:27.636Z,2.50
2024-01-16T14:41:55.936Z,3.63
2024-01-16T14:44:25.232Z,4.23
2024-01-16T14:46:55.348Z,2.47
2024-01-16T14:49:23.296Z,3.22
2024-01-16T14:51:51.541Z,2.83
2024-01-16T14:54:19.322Z,5.50
2024-01-16T14:56:47.009Z,4.70
2024-01-16T14:59:16.312Z,9.82
2024-01-16T15:01:46.468Z,2.97
2024-01-16T15:04:14.247Z,2.28
2024-01-16T15:06:42.341Z,4.63
2024-01-16T15:09:11.721Z,2.20
2024-01-16T15:11:39.549Z,2.53
2024-01-16T15:14:07.918Z,2.63
2024-01-16T15:16:35.539Z,2.35
2024-01-16T15:19:04.689Z,3.17
2024-01-16T15:21:32.764Z,2.40
2024-01-16T15:24:00.469Z,2.92
2024-01-16T15:26:28.127Z,4.47
2024-01-16T15:28:55.788Z,3.45
2024-01-16T15:31:23.458Z,2.72
2024-01-16T15:33:51.209Z,3.47
2024-01-16T15:36:20.266Z,3.03
2024-01-16T15:38:48.026Z,2.90
2024-01-16T15:41:15.891Z,2.95
2024-01-16T15:43:43.463Z,2.35
2024-01-16T15:46:11.324Z,2.20
2024-01-16T15:48:39.485Z,2.33
2024-01-16T15:51:10.635Z,2.03
2024-01-16T15:53:40.166Z,2.72
2024-01-16T15:56:07.762Z,2.65
2024-01-16T15:58:35.575Z,2.20
2024-01-16T16:01:03.359Z,3.50
2024-01-16T16:03:31.823Z,2.80
2024-01-16T16:05:59.891Z,3.38
2024-01-16T16:08:27.949Z,3.83
2024-01-16T16:10:57.955Z,2.90
2024-01-16T16:13:25.681Z,2.60
2024-01-16T16:15:53.290Z,2.58
2024-01-16T16:18:20.968Z,3.22
2024-01-16T16:20:48.615Z,2.22
2024-01-16T16:23:16.226Z,4.33
2024-01-16T16:25:46.991Z,2.95
2024-01-16T16:28:15.975Z,2.55
2024-01-16T16:30:44.548Z,3.80
2024-01-16T16:33:13.036Z,3.35
2024-01-16T16:35:40.769Z,3.20
2024-01-16T16:38:10.208Z,3.80
2024-01-16T16:40:39.230Z,4.28
2024-01-16T16:43:06.783Z,2.95
2024-01-16T16:45:42.890Z,3.05
2024-01-16T16:48:13.996Z,3.10
2024-01-16T16:50:41.676Z,3.20
2024-01-16T16:53:10.076Z,2.70
2024-01-16T16:55:37.650Z,2.53
2024-01-16T16:58:09.202Z,2.47
2024-01-16T17:00:39.959Z,3.40
2024-01-16T17:03:08.925Z,2.92
2024-01-16T17:05:36.682Z,3.28
2024-01-16T17:08:05.146Z,2.55
2024-01-16T17:10:32.974Z,3.47
2024-01-16T17:13:00.519Z,2.60
2024-01-16T17:15:28.324Z,3.72
2024-01-16T17:17:57.304Z,4.20
2024-01-16T17:20:25.765Z,7.80
2024-01-16T17:22:53.485Z,11.60
2024-01-16T17:25:21.026Z,3.90
2024-01-16T17:27:50.498Z,3.05
2024-01-16T17:30:18.095Z,2.85
2024-01-16T17:32:45.762Z,2.30
2024-01-16T17:35:15.296Z,2.42
2024-01-16T17:37:42.873Z,2.70
2024-01-16T17:40:13.509Z,2.33
2024-01-16T17:42:41.220Z,2.58
2024-01-16T17:45:10.356Z,2.10
2024-01-16T17:47:38.052Z,1.80
2024-01-16T17:50:07.675Z,1.90
2024-01-16T17:52:36.753Z,2.42
2024-01-16T17:55:04.382Z,2.00
2024-01-16T17:57:31.958Z,1.58
2024-01-16T17:59:59.544Z,1.48
2024-01-16T18:02:28.220Z,2.37
2024-01-16T18:04:55.805Z,1.27
2024-01-16T18:07:23.371Z,1.90
2024-01-16T18:09:52.292Z,2.40
2024-01-16T18:12:19.904Z,4.57
2024-01-16T18:14:47.514Z,5.20
2024-01-16T18:17:15.120Z,2.35
2024-01-16T18:19:43.613Z,2.50
2024-01-16T18:22:11.860Z,2.03
2024-01-16T18:24:39.842Z,2.50
2024-01-16T18:27:08.929Z,1.83
2024-01-16T18:29:38.264Z,1.80
2024-01-16T18:32:08.022Z,1.70
2024-01-16T18:34:38.201Z,1.15
2024-01-16T18:37:07.591Z,1.85
2024-01-16T18:39:35.602Z,1.70
2024-01-16T18:42:03.852Z,1.67
2024-01-16T18:44:32.875Z,1.80
2024-01-16T18:47:00.542Z,2.20
2024-01-16T18:49:28.381Z,1.50
2024-01-16T18:51:57.065Z,1.87
2024-01-16T18:54:25.861Z,1.10
2024-01-16T18:56:53.513Z,1.20
2024-01-16T18:59:22.891Z,1.48
2024-01-16T19:01:52.436Z,1.83
2024-01-16T19:04:21.504Z,0.70
2024-01-16T19:06:49.365Z,1.45
2024-01-16T19:09:19.866Z,1.55
2024-01-16T19:11:49.664Z,1.35
2024-01-16T19:14:17.913Z,1.52
2024-01-16T19:16:47.330Z,1.77
2024-01-16T19:19:16.799Z,1.90
2024-01-16T19:21:47.476Z,1.40
2024-01-16T19:24:16.974Z,1.40
2024-01-16T19:26:45.334Z,1.70
2024-01-16T19:29:12.949Z,1.60
2024-01-16T19:31:40.563Z,1.33
2024-01-16T19:34:08.779Z,1.20
2024-01-16T19:36:41.076Z,1.35
2024-01-16T19:39:15.372Z,1.45
2024-01-16T19:41:44.009Z,1.30
2024-01-16T19:44:12.151Z,1.40
2024-01-16T19:46:41.513Z,1.20
2024-01-16T19:49:09.672Z,1.60
2024-01-16T19:51:41.487Z,1.63
2024-01-16T19:54:09.792Z,1.70
2024-01-16T19:56:39.218Z,2.28
2024-01-16T19:59:08.603Z,2.10
2024-01-16T20:01:36.402Z,2.33
2024-01-16T20:04:06.675Z,2.20
2024-01-16T20:06:34.514Z,2.10
2024-01-16T20:09:05.569Z,3.15
2024-01-16T20:11:34.564Z,2.15
2024-01-16T20:14:02.888Z,2.60
2024-01-16T20:16:32.035Z,3.35
2024-01-16T20:19:01.751Z,4.53
2024-01-16T20:21:29.426Z,2.95
2024-01-16T20:23:57.080Z,3.08
2024-01-16T20:26:26.947Z,4.57
2024-01-16T20:28:54.694Z,4.30
2024-01-16T20:31:22.411Z,4.13
2024-01-16T20:33:50.882Z,6.25
2024-01-16T20:36:18.801Z,5.35
2024-01-16T20:38:48.544Z,4.45
2024-01-16T20:41:17.213Z,4.03
2024-01-16T20:43:46.173Z,2.53
2024-01-16T20:46:15.583Z,2.30
2024-01-16T20:48:43.556Z,3.30
2024-01-16T20:51:14.903Z,3.15
2024-01-16T20:53:44.993Z,2.70
2024-01-16T20:56:12.652Z,2.70
2024-01-16T20:58:40.291Z,1.83
2024-01-16T21:01:09.546Z,1.60
2024-01-16T21:03:37.241Z,2.88
2024-01-16T21:06:07.461Z,3.72
2024-01-16T21:08:38.132Z,3.10
2024-01-16T21:11:05.974Z,2.15
2024-01-16T21:13:33.542Z,2.60
2024-01-16T21:16:02.904Z,3.30
2024-01-16T21:18:32.994Z,2.30
2024-01-16T21:21:01.015Z,2.77
2024-01-16T21:23:28.639Z,2.78
2024-01-16T21:25:56.661Z,2.75
2024-01-16T21:28:24.411Z,2.95
2024-01-16T21:30:52.797Z,3.05
2024-01-16T21:33:20.552Z,2.73
2024-01-16T21:35:49.566Z,2.33
2024-01-16T21:38:17.670Z,2.58
2024-01-16T21:40:45.368Z,2.53
2024-01-16T21:43:14.194Z,5.72
2024-01-16T21:45:42.342Z,4.57
2024-01-16T21:48:10.938Z,5.65
2024-01-16T21:50:39.893Z,7.35
2024-01-16T21:53:08.936Z,8.77
2024-01-16T21:55:36.609Z,9.27
2024-01-16T21:58:04.284Z,8.43
2024-01-16T22:00:32.558Z,8.55
2024-01-16T22:03:00.472Z,7.07
2024-01-16T22:05:28.492Z,4.57
2024-01-16T22:07:56.083Z,4.03
2024-01-16T22:10:25.436Z,3.13
2024-01-16T22:12:53.089Z,2.80
2024-01-16T22:15:20.789Z,3.70
2024-01-16T22:17:48.665Z,2.58
2024-01-16T22:20:17.529Z,2.80
2024-01-16T22:22:45.198Z,3.20
2024-01-16T22:25:12.871Z,3.03
2024-01-16T22:27:41.826Z,3.72
2024-01-16T22:30:10.956Z,2.63
2024-01-16T22:32:39.091Z,3.30
2024-01-16T22:35:07.291Z,3.93
2024-01-16T22:37:34.827Z,4.65
2024-01-16T22:40:02.422Z,3.50
2024-01-16T22:42:31.108Z,4.13
2024-01-16T22:45:00.080Z,3.40
2024-01-16T22:47:27.811Z,2.97
2024-01-16T22:49:55.445Z,3.40
2024-01-16T22:52:23.618Z,2.90
2024-01-16T22:54:51.192Z,4.32
2024-01-16T22:57:18.919Z,4.85
2024-01-16T22:59:46.521Z,4.37
2024-01-16T23:02:15.453Z,4.43
2024-01-16T23:04:43.112Z,5.45
2024-01-16T23:07:10.778Z,4.75
2024-01-16T23:09:38.778Z,5.00
2024-01-16T23:12:07.845Z,5.37
2024-01-16T23:14:35.553Z,4.05
2024-01-16T23:17:03.315Z,5.82
2024-01-16T23:19:32.388Z,5.90
2024-01-16T23:22:00.056Z,4.13
2024-01-16T23:24:29.064Z,4.73
2024-01-16T23:26:56.674Z,5.22
2024-01-16T23:29:24.286Z,6.03
2024-01-16T23:31:51.980Z,4.93
2024-01-16T23:34:19.568Z,6.80
2024-01-16T23:36:48.512Z,5.43
2024-01-16T23:39:16.612Z,4.45
2024-01-16T23:41:46.058Z,5.55
2024-01-16T23:44:13.795Z,5.90
2024-01-16T23:46:41.460Z,4.55
2024-01-16T23:49:09.009Z,6.90
2024-01-16T23:51:36.846Z,5.60
2024-01-16T23:54:06.462Z,6.63
2024-01-16T23:56:34.115Z,5.70
2024-01-16T23:59:01.758Z,6.28
